Nearby METAR Reports

 

KMTN - Baltimore/Martin, Maryland, USA
Distance from station: SSE 8mi, 13km
Updated: Wed, 22-Oct-2014 3:48am EDT
Light rain, Overcast
Light rain, Overcast
 Wind from calm
Wind: Calm
Temperature: 54°F , 12°C
Dew Point: 54°F , 12°C
Humidity: 100%
Barometer: 29.87 inHg , 1011.5 hPa
Summary: Light rain
Clouds: Overcast
Visibility: 5 miles , 8 km
Cloud details: Mostly cloudy 900 ft
Mostly cloudy 1200 ft
Overcast 5500 ft
2014/10/22 07:48 KMTN 220748Z AUTO 00000KT 5SM -RA BKN009 BKN012 OVC055 12/12 A2987 RMK AO2 P0002
KDMH - Baltimore/Dwntwn, Maryland, USA
Distance from station: SW 12mi, 19km
Updated: Wed, 22-Oct-2014 2:54am EDT

 
Temperature: 54°F , 12°C
Dew Point: 52°F , 11°C
Humidity: 94%
Barometer: 29.86 inHg , 1011.2 hPa
2014/10/22 06:54 KDMH 220654Z AUTO 12/11 A2986 RMK AO1 SLP111 P0016 T01220106
 
KBWI - Balto/Wash Intl, Maryland, USA
Distance from station: SSW 20mi, 33km
Updated: Wed, 22-Oct-2014 3:32am EDT
Light rain, Overcast
Light rain, Overcast
 Wind from NW
Wind: NW 6 mph , 9 km/h
Temperature: 54°F , 12°C
Dew Point: 52°F , 11°C
Humidity: 94%
Barometer: 29.85 inHg , 1010.8 hPa
Summary: Light rain
Clouds: Overcast
Visibility: 7 miles , 11 km
Cloud details: Partly cloudy 2000 ft
Mostly cloudy 3900 ft
Overcast 5500 ft
2014/10/22 07:32 KBWI 220732Z 32005KT 7SM -RA SCT020 BKN039 OVC055 12/11 A2985 RMK AO2 P0002
KDMW - Carroll Cnty, Maryland, USA
Distance from station: WNW 30mi, 48km
Updated: Wed, 22-Oct-2014 3:50am EDT
Rain, Overcast
Rain, Overcast
 Wind from N
Wind: N 8 mph , 13 km/h
Temperature: 52°F , 11°C
Dew Point: 48°F , 9°C
Humidity: 88%
Barometer: 29.88 inHg , 1011.9 hPa
Summary: Rain
Clouds: Overcast
Visibility: 7 miles , 11 km
Cloud details: Mostly cloudy 2200 ft
Mostly cloudy 3600 ft
Overcast 6000 ft
2014/10/22 07:50 KDMW 220750Z AUTO 01007KT 7SM RA BKN022 BKN036 OVC060 11/09 A2988 RMK AO2
 
KNAK - Annapolis/Naval, Maryland, USA
Distance from station: S 30mi, 48km
Updated: Wed, 22-Oct-2014 2:54am EDT
Overcast
Overcast
 Wind from NW
Wind: NW 10 mph , 17 km/h
Temperature: 55°F , 13°C
Dew Point: 52°F , 11°C
Humidity: 88%
Barometer: 29.84 inHg , 1010.5 hPa
Clouds: Overcast
Visibility: 7 miles , 11 km
Cloud details: Overcast 6500 ft
2014/10/22 06:54 KNAK 220654Z AUTO 32009KT 7SM OVC065 13/11 A2984 RMK AO2 RAE26 SLP107 P0001 T01280111
KW29 - Stevensville, Maryland, USA
Distance from station: SSE 31mi, 50km
Updated: Wed, 22-Oct-2014 3:30am EDT

 Wind from N
Wind: N 10 mph , 17 km/h
Temperature: 54°F , 12°C
Dew Point: 52°F , 11°C
Humidity: 94%
Barometer: 29.84 inHg , 1010.5 hPa
Visibility: 10 miles , 16 km
2014/10/22 07:30 KW29 220730Z AUTO 36009KT 10SM 12/11 A2984 RMK AO1
 
KCGS - College Park, Maryland, USA
Distance from station: SW 38mi, 61km
Updated: Wed, 22-Oct-2014 3:50am EDT
Overcast
Overcast
 Wind from NNW
Wind: NNW 3 mph , 6 km/h
Temperature: 54°F , 12°C
Dew Point: 52°F , 11°C
Humidity: 94%
Barometer: 29.86 inHg , 1011.2 hPa
Clouds: Overcast
Visibility: 7 miles , 11 km
Cloud details: Partly cloudy 4900 ft
Mostly cloudy 5500 ft
Overcast 7000 ft
2014/10/22 07:50 KCGS 220750Z AUTO 34003KT 7SM SCT049 BKN055 OVC070 12/11 A2986 RMK AO1
KGAI - Gaithersburg, Maryland, USA
Distance from station: WSW 40mi, 65km
Updated: Wed, 22-Oct-2014 3:35am EDT
Overcast
Overcast
 Wind from NW
Wind: NW 3 mph , 6 km/h
Temperature: 52°F , 11°C
Dew Point: 48°F , 9°C
Humidity: 88%
Barometer: 29.91 inHg , 1012.9 hPa
Clouds: Overcast
Visibility: 9 miles , 14 km
Cloud details: Partly cloudy 4200 ft
Mostly cloudy 4800 ft
Overcast 7000 ft
2014/10/22 07:35 KGAI 220735Z 31003KT 9SM SCT042 BKN048 OVC070 11/09 A2991 RMK AO1 P0001
 
KTHV - York, Pennsylvania, USA
Distance from station: NNW 40mi, 65km
Updated: Wed, 22-Oct-2014 3:35am EDT
Heavy rain, Mist, Overcast
Heavy rain, Mist, Overcast
 Wind from calm
Wind: Calm
Temperature: 52°F , 11°C
Dew Point: 50°F , 10°C
Humidity: 94%
Barometer: 29.89 inHg , 1012.2 hPa
Summary: Heavy rain, Mist
Clouds: Overcast
Visibility: 1 3/4 miles , 5 km
Cloud details: Mostly cloudy 2200 ft
Overcast 3200 ft
2014/10/22 07:35 KTHV 220735Z AUTO 00000KT 1 3/4SM +RA BR BKN022 OVC032 11/10 A2989 RMK AO2 P0020 T01060100
KFDK - Frederick, Maryland, USA
Distance from station: W 47mi, 75km
Updated: Wed, 22-Oct-2014 3:30am EDT
Light rain, Overcast
Light rain, Overcast
 Wind from calm
Wind: Calm
Temperature: 55°F , 13°C
Dew Point: 52°F , 11°C
Humidity: 88%
Barometer: 29.92 inHg , 1013.2 hPa
Summary: Light rain
Clouds: Overcast
Visibility: 4 miles , 6 km
Cloud details: Overcast 7000 ft
2014/10/22 07:30 KFDK 220730Z AUTO 00000KT 4SM -RA OVC070 13/11 A2992 RMK AO2 LTG DSNT E AND SE P0001
 
KESN - Easton/Newnam, Maryland, USA
Distance from station: SSE 48mi, 78km
Updated: Wed, 22-Oct-2014 4:03am EDT
Overcast
Overcast
 Wind from NNE
Wind: NNE 8 mph , 13 km/h
Temperature: 55°F , 13°C
Dew Point: 55°F , 13°C
Humidity: 100%
Barometer: 29.85 inHg , 1010.8 hPa
Clouds: Overcast
Visibility: 7 miles , 11 km
Cloud details: Overcast 7000 ft
2014/10/22 08:03 KESN 220803Z AUTO 02007KT 7SM OVC070 13/13 A2985 RMK AO2 T01310131
KDCA - Washington/Natl, Washington D.c., USA
Distance from station: SW 49mi, 79km
Updated: Wed, 22-Oct-2014 3:52am EDT
Light rain, Overcast
Light rain, Overcast
 Wind from NNW
Wind: NNW 13 mph , 20 km/h
Temperature: 55°F , 13°C
Dew Point: 50°F , 10°C
Humidity: 82%
Barometer: 29.87 inHg , 1011.5 hPa
Summary: Light rain
Clouds: Overcast
Visibility: 5 miles , 8 km
Cloud details: Few Clouds 2900 ft
Overcast 7000 ft
2014/10/22 07:52 KDCA 220752Z 33011KT 5SM -RA FEW029 OVC070 13/10 A2987 RMK AO2 SLP114 P0004 T01280100
 
KLNS - Lancaster, Pennsylvania, USA
Distance from station: N 49mi, 79km
Updated: Wed, 22-Oct-2014 2:53am EDT
Light rain, Overcast
Light rain, Overcast
 Wind from NE
Wind: NE 10 mph , 17 km/h
Temperature: 54°F , 12°C
Dew Point: 48°F , 9°C
Humidity: 82%
Barometer: 29.88 inHg , 1011.9 hPa
Summary: Light rain
Clouds: Overcast
Visibility: 8 miles , 13 km
Cloud details: Overcast 6500 ft
2014/10/22 06:53 KLNS 220653Z AUTO 04009KT 8SM -RA OVC065 12/09 A2988 RMK AO2 RAB0554 SLP118 P0000 T01170094
KILG - Wilmington, Delaware, USA
Distance from station: ENE 50mi, 81km
Updated: Wed, 22-Oct-2014 2:51am EDT
Light rain, Overcast
Light rain, Overcast
 Wind from N
Wind: N 10 mph , 17 km/h
Temperature: 55°F , 13°C
Dew Point: 52°F , 11°C
Humidity: 88%
Barometer: 29.84 inHg , 1010.5 hPa
Summary: Light rain
Clouds: Overcast
Visibility: 10 miles , 16 km
Cloud details: Few Clouds 6500 ft
Overcast 8500 ft
2014/10/22 06:51 KILG 220651Z 36009KT 10SM -RA FEW065 OVC085 13/11 A2984 RMK AO2 RAB0552 SLP105 P0000 T01280111